sensor_id;sensor_type;location;lat;lon;timestamp;P1;durP1;ratioP1;P2;durP2;ratioP2
9459;SDS011;4768;42.664;23.240;2023-11-21T00:01:45;5.53;;;3.20;;
9459;SDS011;4768;42.664;23.240;2023-11-21T00:04:15;4.33;;;2.87;;
9459;SDS011;4768;42.664;23.240;2023-11-21T00:06:42;3.80;;;2.33;;
9459;SDS011;4768;42.664;23.240;2023-11-21T00:09:12;5.67;;;1.87;;
9459;SDS011;4768;42.664;23.240;2023-11-21T00:11:40;2.43;;;1.40;;
9459;SDS011;4768;42.664;23.240;2023-11-21T00:14:07;3.20;;;2.10;;
9459;SDS011;4768;42.664;23.240;2023-11-21T00:16:34;4.50;;;2.17;;
9459;SDS011;4768;42.664;23.240;2023-11-21T00:19:01;11.03;;;6.13;;
9459;SDS011;4768;42.664;23.240;2023-11-21T00:21:29;20.13;;;9.20;;
9459;SDS011;4768;42.664;23.240;2023-11-21T00:23:56;14.93;;;9.20;;
9459;SDS011;4768;42.664;23.240;2023-11-21T00:26:22;13.83;;;5.90;;
9459;SDS011;4768;42.664;23.240;2023-11-21T00:28:50;18.57;;;8.23;;
9459;SDS011;4768;42.664;23.240;2023-11-21T00:31:16;17.93;;;8.00;;
9459;SDS011;4768;42.664;23.240;2023-11-21T00:33:43;13.50;;;7.00;;
9459;SDS011;4768;42.664;23.240;2023-11-21T00:36:10;14.33;;;7.20;;
9459;SDS011;4768;42.664;23.240;2023-11-21T00:38:38;14.13;;;7.33;;
9459;SDS011;4768;42.664;23.240;2023-11-21T00:41:05;14.70;;;8.10;;
9459;SDS011;4768;42.664;23.240;2023-11-21T00:43:32;20.30;;;8.50;;
9459;SDS011;4768;42.664;23.240;2023-11-21T00:45:59;15.87;;;9.00;;
9459;SDS011;4768;42.664;23.240;2023-11-21T00:48:26;17.53;;;9.53;;
9459;SDS011;4768;42.664;23.240;2023-11-21T00:50:52;14.80;;;8.53;;
9459;SDS011;4768;42.664;23.240;2023-11-21T00:53:21;13.40;;;7.03;;
9459;SDS011;4768;42.664;23.240;2023-11-21T00:55:49;11.33;;;6.07;;
9459;SDS011;4768;42.664;23.240;2023-11-21T00:58:17;8.33;;;5.00;;
9459;SDS011;4768;42.664;23.240;2023-11-21T01:00:44;8.70;;;4.27;;
9459;SDS011;4768;42.664;23.240;2023-11-21T01:03:12;7.93;;;3.83;;
9459;SDS011;4768;42.664;23.240;2023-11-21T01:05:39;5.07;;;3.13;;
9459;SDS011;4768;42.664;23.240;2023-11-21T01:08:05;5.13;;;2.73;;
9459;SDS011;4768;42.664;23.240;2023-11-21T01:10:32;7.67;;;3.77;;
9459;SDS011;4768;42.664;23.240;2023-11-21T01:13:00;5.10;;;2.67;;
9459;SDS011;4768;42.664;23.240;2023-11-21T01:15:29;8.70;;;3.27;;
9459;SDS011;4768;42.664;23.240;2023-11-21T01:17:55;12.90;;;5.10;;
9459;SDS011;4768;42.664;23.240;2023-11-21T01:20:22;13.60;;;6.23;;
9459;SDS011;4768;42.664;23.240;2023-11-21T01:22:49;8.40;;;4.93;;
9459;SDS011;4768;42.664;23.240;2023-11-21T01:25:15;11.43;;;5.10;;
9459;SDS011;4768;42.664;23.240;2023-11-21T01:27:42;9.93;;;5.43;;
9459;SDS011;4768;42.664;23.240;2023-11-21T01:30:11;13.43;;;5.80;;
9459;SDS011;4768;42.664;23.240;2023-11-21T01:32:38;12.13;;;6.23;;
9459;SDS011;4768;42.664;23.240;2023-11-21T01:35:05;14.00;;;7.33;;
9459;SDS011;4768;42.664;23.240;2023-11-21T01:37:32;15.60;;;7.53;;
9459;SDS011;4768;42.664;23.240;2023-11-21T01:39:59;19.07;;;8.63;;
9459;SDS011;4768;42.664;23.240;2023-11-21T01:42:27;17.23;;;8.97;;
9459;SDS011;4768;42.664;23.240;2023-11-21T01:44:54;16.87;;;9.17;;
9459;SDS011;4768;42.664;23.240;2023-11-21T01:47:22;14.67;;;8.00;;
9459;SDS011;4768;42.664;23.240;2023-11-21T01:49:49;12.17;;;7.50;;
9459;SDS011;4768;42.664;23.240;2023-11-21T01:52:16;14.83;;;8.70;;
9459;SDS011;4768;42.664;23.240;2023-11-21T01:54:43;14.10;;;7.47;;
9459;SDS011;4768;42.664;23.240;2023-11-21T01:57:10;14.27;;;7.50;;
9459;SDS011;4768;42.664;23.240;2023-11-21T01:59:37;18.93;;;8.60;;
9459;SDS011;4768;42.664;23.240;2023-11-21T02:02:04;13.10;;;7.07;;
9459;SDS011;4768;42.664;23.240;2023-11-21T02:04:34;16.40;;;8.77;;
9459;SDS011;4768;42.664;23.240;2023-11-21T02:07:01;16.27;;;8.23;;
9459;SDS011;4768;42.664;23.240;2023-11-21T02:09:30;14.27;;;8.00;;
9459;SDS011;4768;42.664;23.240;2023-11-21T02:11:58;14.40;;;8.07;;
9459;SDS011;4768;42.664;23.240;2023-11-21T02:14:25;14.57;;;7.90;;
9459;SDS011;4768;42.664;23.240;2023-11-21T02:16:53;13.30;;;8.03;;
9459;SDS011;4768;42.664;23.240;2023-11-21T02:19:21;15.13;;;8.70;;
9459;SDS011;4768;42.664;23.240;2023-11-21T02:21:52;15.47;;;8.90;;
9459;SDS011;4768;42.664;23.240;2023-11-21T02:24:21;18.00;;;8.87;;
9459;SDS011;4768;42.664;23.240;2023-11-21T02:26:48;15.30;;;8.13;;
9459;SDS011;4768;42.664;23.240;2023-11-21T02:29:16;16.40;;;7.67;;
9459;SDS011;4768;42.664;23.240;2023-11-21T02:31:44;16.33;;;8.80;;
9459;SDS011;4768;42.664;23.240;2023-11-21T02:34:14;10.17;;;7.03;;
9459;SDS011;4768;42.664;23.240;2023-11-21T02:36:40;12.87;;;7.30;;
9459;SDS011;4768;42.664;23.240;2023-11-21T02:39:08;13.10;;;7.40;;
9459;SDS011;4768;42.664;23.240;2023-11-21T02:41:37;13.80;;;8.20;;
9459;SDS011;4768;42.664;23.240;2023-11-21T02:44:04;13.60;;;7.63;;
9459;SDS011;4768;42.664;23.240;2023-11-21T02:46:32;10.93;;;6.80;;
9459;SDS011;4768;42.664;23.240;2023-11-21T02:48:59;13.00;;;6.77;;
9459;SDS011;4768;42.664;23.240;2023-11-21T02:51:26;13.40;;;7.20;;
9459;SDS011;4768;42.664;23.240;2023-11-21T02:53:52;11.50;;;6.50;;
9459;SDS011;4768;42.664;23.240;2023-11-21T02:56:19;10.17;;;6.37;;
9459;SDS011;4768;42.664;23.240;2023-11-21T02:58:47;13.07;;;6.20;;
9459;SDS011;4768;42.664;23.240;2023-11-21T03:01:14;9.07;;;5.17;;
9459;SDS011;4768;42.664;23.240;2023-11-21T03:03:42;9.17;;;5.53;;
9459;SDS011;4768;42.664;23.240;2023-11-21T03:06:09;11.57;;;5.80;;
9459;SDS011;4768;42.664;23.240;2023-11-21T03:08:35;11.13;;;5.30;;
9459;SDS011;4768;42.664;23.240;2023-11-21T03:11:02;9.37;;;4.80;;
9459;SDS011;4768;42.664;23.240;2023-11-21T03:13:29;8.57;;;4.90;;
9459;SDS011;4768;42.664;23.240;2023-11-21T03:15:57;7.67;;;4.57;;
9459;SDS011;4768;42.664;23.240;2023-11-21T03:18:24;6.67;;;4.00;;
9459;SDS011;4768;42.664;23.240;2023-11-21T03:20:51;7.77;;;4.40;;
9459;SDS011;4768;42.664;23.240;2023-11-21T03:23:18;7.97;;;4.37;;
9459;SDS011;4768;42.664;23.240;2023-11-21T03:25:45;7.93;;;3.90;;
9459;SDS011;4768;42.664;23.240;2023-11-21T03:28:12;9.57;;;4.20;;
9459;SDS011;4768;42.664;23.240;2023-11-21T03:30:39;5.60;;;3.90;;
9459;SDS011;4768;42.664;23.240;2023-11-21T03:33:07;5.20;;;3.83;;
9459;SDS011;4768;42.664;23.240;2023-11-21T03:35:34;6.43;;;3.87;;
9459;SDS011;4768;42.664;23.240;2023-11-21T03:38:01;4.70;;;3.47;;
9459;SDS011;4768;42.664;23.240;2023-11-21T03:40:28;3.53;;;2.43;;
9459;SDS011;4768;42.664;23.240;2023-11-21T03:42:56;4.70;;;3.30;;
9459;SDS011;4768;42.664;23.240;2023-11-21T03:45:23;15.80;;;10.63;;
9459;SDS011;4768;42.664;23.240;2023-11-21T03:47:50;9.43;;;5.03;;
9459;SDS011;4768;42.664;23.240;2023-11-21T03:50:18;4.30;;;2.80;;
9459;SDS011;4768;42.664;23.240;2023-11-21T03:52:45;4.97;;;3.00;;
9459;SDS011;4768;42.664;23.240;2023-11-21T03:55:12;6.17;;;3.10;;
9459;SDS011;4768;42.664;23.240;2023-11-21T03:57:40;4.87;;;2.80;;
9459;SDS011;4768;42.664;23.240;2023-11-21T04:00:07;8.77;;;4.50;;
9459;SDS011;4768;42.664;23.240;2023-11-21T04:02:35;8.97;;;5.47;;
9459;SDS011;4768;42.664;23.240;2023-11-21T04:05:02;12.63;;;5.67;;
9459;SDS011;4768;42.664;23.240;2023-11-21T04:07:31;9.57;;;5.77;;
9459;SDS011;4768;42.664;23.240;2023-11-21T04:09:58;10.73;;;5.47;;
9459;SDS011;4768;42.664;23.240;2023-11-21T04:12:25;9.27;;;5.13;;
9459;SDS011;4768;42.664;23.240;2023-11-21T04:14:52;13.13;;;7.40;;
9459;SDS011;4768;42.664;23.240;2023-11-21T04:17:19;11.13;;;6.40;;
9459;SDS011;4768;42.664;23.240;2023-11-21T04:19:46;10.97;;;7.30;;
9459;SDS011;4768;42.664;23.240;2023-11-21T04:22:12;13.03;;;5.70;;
9459;SDS011;4768;42.664;23.240;2023-11-21T04:24:41;12.33;;;5.90;;
9459;SDS011;4768;42.664;23.240;2023-11-21T04:27:07;13.07;;;7.07;;
9459;SDS011;4768;42.664;23.240;2023-11-21T04:29:34;13.77;;;6.57;;
9459;SDS011;4768;42.664;23.240;2023-11-21T04:32:01;12.33;;;7.70;;
9459;SDS011;4768;42.664;23.240;2023-11-21T04:34:28;16.20;;;9.10;;
9459;SDS011;4768;42.664;23.240;2023-11-21T04:36:56;12.97;;;8.57;;
9459;SDS011;4768;42.664;23.240;2023-11-21T04:39:22;18.60;;;9.87;;
9459;SDS011;4768;42.664;23.240;2023-11-21T04:41:51;18.00;;;9.47;;
9459;SDS011;4768;42.664;23.240;2023-11-21T04:44:18;18.47;;;9.83;;
9459;SDS011;4768;42.664;23.240;2023-11-21T04:46:44;16.53;;;9.10;;
9459;SDS011;4768;42.664;23.240;2023-11-21T04:49:11;20.43;;;10.00;;
9459;SDS011;4768;42.664;23.240;2023-11-21T04:51:38;20.03;;;10.33;;
9459;SDS011;4768;42.664;23.240;2023-11-21T04:54:05;18.60;;;11.00;;
9459;SDS011;4768;42.664;23.240;2023-11-21T04:56:32;16.03;;;10.63;;
9459;SDS011;4768;42.664;23.240;2023-11-21T04:59:00;23.57;;;10.23;;
9459;SDS011;4768;42.664;23.240;2023-11-21T05:01:26;19.63;;;10.90;;
9459;SDS011;4768;42.664;23.240;2023-11-21T05:03:53;18.70;;;10.83;;
9459;SDS011;4768;42.664;23.240;2023-11-21T05:06:22;21.77;;;11.00;;
9459;SDS011;4768;42.664;23.240;2023-11-21T05:08:49;20.33;;;10.77;;
9459;SDS011;4768;42.664;23.240;2023-11-21T05:11:23;16.93;;;10.60;;
9459;SDS011;4768;42.664;23.240;2023-11-21T05:13:50;14.93;;;8.37;;
9459;SDS011;4768;42.664;23.240;2023-11-21T05:16:18;13.83;;;7.60;;
9459;SDS011;4768;42.664;23.240;2023-11-21T05:18:45;14.60;;;6.63;;
9459;SDS011;4768;42.664;23.240;2023-11-21T05:21:12;16.97;;;10.37;;
9459;SDS011;4768;42.664;23.240;2023-11-21T05:23:38;11.00;;;6.33;;
9459;SDS011;4768;42.664;23.240;2023-11-21T05:26:05;12.47;;;7.27;;
9459;SDS011;4768;42.664;23.240;2023-11-21T05:28:32;11.47;;;6.17;;
9459;SDS011;4768;42.664;23.240;2023-11-21T05:30:59;11.30;;;5.23;;
9459;SDS011;4768;42.664;23.240;2023-11-21T05:33:28;7.80;;;4.47;;
9459;SDS011;4768;42.664;23.240;2023-11-21T05:35:54;6.53;;;3.10;;
9459;SDS011;4768;42.664;23.240;2023-11-21T05:38:21;5.60;;;3.07;;
9459;SDS011;4768;42.664;23.240;2023-11-21T05:40:48;5.90;;;3.70;;
9459;SDS011;4768;42.664;23.240;2023-11-21T05:43:14;6.07;;;3.43;;
9459;SDS011;4768;42.664;23.240;2023-11-21T05:45:41;7.87;;;3.30;;
9459;SDS011;4768;42.664;23.240;2023-11-21T05:48:08;6.17;;;3.10;;
9459;SDS011;4768;42.664;23.240;2023-11-21T05:50:36;5.73;;;2.30;;
9459;SDS011;4768;42.664;23.240;2023-11-21T05:53:03;11.17;;;7.67;;
9459;SDS011;4768;42.664;23.240;2023-11-21T05:55:30;20.87;;;15.13;;
9459;SDS011;4768;42.664;23.240;2023-11-21T05:57:57;11.60;;;7.77;;
9459;SDS011;4768;42.664;23.240;2023-11-21T06:00:25;11.50;;;7.10;;
9459;SDS011;4768;42.664;23.240;2023-11-21T06:02:53;15.83;;;7.03;;
9459;SDS011;4768;42.664;23.240;2023-11-21T06:05:20;11.53;;;6.50;;
9459;SDS011;4768;42.664;23.240;2023-11-21T06:07:50;16.53;;;9.97;;
9459;SDS011;4768;42.664;23.240;2023-11-21T06:10:19;10.70;;;5.53;;
9459;SDS011;4768;42.664;23.240;2023-11-21T06:12:46;17.97;;;10.37;;
9459;SDS011;4768;42.664;23.240;2023-11-21T06:15:13;12.43;;;8.27;;
9459;SDS011;4768;42.664;23.240;2023-11-21T06:17:40;24.47;;;13.80;;
9459;SDS011;4768;42.664;23.240;2023-11-21T06:20:09;52.23;;;21.10;;
9459;SDS011;4768;42.664;23.240;2023-11-21T06:22:39;32.57;;;15.97;;
9459;SDS011;4768;42.664;23.240;2023-11-21T06:25:09;40.77;;;17.87;;
9459;SDS011;4768;42.664;23.240;2023-11-21T06:27:38;27.27;;;13.03;;
9459;SDS011;4768;42.664;23.240;2023-11-21T06:30:06;21.60;;;12.47;;
9459;SDS011;4768;42.664;23.240;2023-11-21T06:32:34;26.23;;;13.93;;
9459;SDS011;4768;42.664;23.240;2023-11-21T06:35:01;30.27;;;15.20;;
9459;SDS011;4768;42.664;23.240;2023-11-21T06:37:29;27.83;;;15.33;;
9459;SDS011;4768;42.664;23.240;2023-11-21T06:39:57;26.90;;;15.03;;
9459;SDS011;4768;42.664;23.240;2023-11-21T06:42:25;30.63;;;16.30;;
9459;SDS011;4768;42.664;23.240;2023-11-21T06:44:54;38.40;;;22.47;;
9459;SDS011;4768;42.664;23.240;2023-11-21T06:47:22;38.30;;;20.23;;
9459;SDS011;4768;42.664;23.240;2023-11-21T06:49:50;40.10;;;19.57;;
9459;SDS011;4768;42.664;23.240;2023-11-21T06:52:17;35.43;;;20.33;;
9459;SDS011;4768;42.664;23.240;2023-11-21T07:02:01;36.72;;;19.95;;
9459;SDS011;4768;42.664;23.240;2023-11-21T07:04:27;30.87;;;17.80;;
9459;SDS011;4768;42.664;23.240;2023-11-21T07:06:54;43.27;;;20.10;;
9459;SDS011;4768;42.664;23.240;2023-11-21T07:09:21;32.90;;;18.10;;
9459;SDS011;4768;42.664;23.240;2023-11-21T07:43:55;39.27;;;21.17;;
9459;SDS011;4768;42.664;23.240;2023-11-21T07:46:22;44.50;;;21.43;;
9459;SDS011;4768;42.664;23.240;2023-11-21T07:48:49;44.03;;;21.83;;
9459;SDS011;4768;42.664;23.240;2023-11-21T07:51:17;40.20;;;22.27;;
9459;SDS011;4768;42.664;23.240;2023-11-21T07:56:09;40.95;;;20.95;;
9459;SDS011;4768;42.664;23.240;2023-11-21T07:58:38;42.83;;;22.23;;
9459;SDS011;4768;42.664;23.240;2023-11-21T08:01:06;43.27;;;21.90;;
9459;SDS011;4768;42.664;23.240;2023-11-21T08:03:33;43.87;;;24.27;;
9459;SDS011;4768;42.664;23.240;2023-11-21T10:31:58;19.15;;;11.50;;
9459;SDS011;4768;42.664;23.240;2023-11-21T10:34:25;16.73;;;10.20;;
9459;SDS011;4768;42.664;23.240;2023-11-21T10:36:53;17.30;;;10.80;;
9459;SDS011;4768;42.664;23.240;2023-11-21T10:39:23;19.23;;;10.97;;
9459;SDS011;4768;42.664;23.240;2023-11-21T10:41:54;20.00;;;10.93;;
9459;SDS011;4768;42.664;23.240;2023-11-21T10:44:21;18.57;;;10.97;;
9459;SDS011;4768;42.664;23.240;2023-11-21T10:46:49;18.47;;;10.50;;
9459;SDS011;4768;42.664;23.240;2023-11-21T10:49:18;23.40;;;12.87;;
9459;SDS011;4768;42.664;23.240;2023-11-21T10:51:46;19.83;;;11.63;;
9459;SDS011;4768;42.664;23.240;2023-11-21T10:54:17;20.60;;;10.83;;
9459;SDS011;4768;42.664;23.240;2023-11-21T10:56:45;22.13;;;12.43;;
9459;SDS011;4768;42.664;23.240;2023-11-21T10:59:13;25.77;;;13.90;;
9459;SDS011;4768;42.664;23.240;2023-11-21T11:01:41;25.37;;;13.67;;
9459;SDS011;4768;42.664;23.240;2023-11-21T11:04:11;27.67;;;15.60;;
9459;SDS011;4768;42.664;23.240;2023-11-21T11:06:42;25.40;;;13.57;;
9459;SDS011;4768;42.664;23.240;2023-11-21T11:09:10;23.20;;;13.27;;
9459;SDS011;4768;42.664;23.240;2023-11-21T11:11:40;26.57;;;14.43;;
9459;SDS011;4768;42.664;23.240;2023-11-21T11:14:10;27.13;;;14.20;;
9459;SDS011;4768;42.664;23.240;2023-11-21T11:16:38;20.63;;;10.70;;
9459;SDS011;4768;42.664;23.240;2023-11-21T11:19:06;21.07;;;12.67;;
9459;SDS011;4768;42.664;23.240;2023-11-21T11:21:36;21.23;;;12.90;;
9459;SDS011;4768;42.664;23.240;2023-11-21T11:24:21;21.87;;;13.27;;
9459;SDS011;4768;42.664;23.240;2023-11-21T11:27:06;23.23;;;13.20;;
9459;SDS011;4768;42.664;23.240;2023-11-21T11:29:43;21.10;;;13.37;;
9459;SDS011;4768;42.664;23.240;2023-11-21T11:32:17;20.87;;;12.53;;
9459;SDS011;4768;42.664;23.240;2023-11-21T11:34:53;19.47;;;12.10;;
9459;SDS011;4768;42.664;23.240;2023-11-21T11:37:28;20.67;;;11.87;;
9459;SDS011;4768;42.664;23.240;2023-11-21T11:39:55;16.30;;;11.07;;
9459;SDS011;4768;42.664;23.240;2023-11-21T11:42:22;16.50;;;10.60;;
9459;SDS011;4768;42.664;23.240;2023-11-21T11:44:50;16.57;;;10.87;;
9459;SDS011;4768;42.664;23.240;2023-11-21T11:47:20;21.33;;;11.77;;
9459;SDS011;4768;42.664;23.240;2023-11-21T11:49:56;29.00;;;14.20;;
9459;SDS011;4768;42.664;23.240;2023-11-21T11:55:11;28.37;;;16.70;;
9459;SDS011;4768;42.664;23.240;2023-11-21T11:57:41;28.13;;;15.83;;
9459;SDS011;4768;42.664;23.240;2023-11-21T12:00:09;28.47;;;17.47;;
9459;SDS011;4768;42.664;23.240;2023-11-21T12:02:41;29.70;;;16.60;;
9459;SDS011;4768;42.664;23.240;2023-11-21T12:05:09;33.70;;;17.33;;
9459;SDS011;4768;42.664;23.240;2023-11-21T12:07:46;29.43;;;19.30;;
9459;SDS011;4768;42.664;23.240;2023-11-21T12:10:15;36.03;;;19.80;;
9459;SDS011;4768;42.664;23.240;2023-11-21T12:12:45;30.27;;;18.00;;
9459;SDS011;4768;42.664;23.240;2023-11-21T12:15:13;27.70;;;18.60;;
9459;SDS011;4768;42.664;23.240;2023-11-21T12:17:41;31.30;;;19.10;;
9459;SDS011;4768;42.664;23.240;2023-11-21T12:20:10;29.50;;;17.03;;
9459;SDS011;4768;42.664;23.240;2023-11-21T12:22:42;33.03;;;18.73;;
9459;SDS011;4768;42.664;23.240;2023-11-21T12:25:11;33.63;;;19.07;;
9459;SDS011;4768;42.664;23.240;2023-11-21T12:27:41;35.97;;;20.60;;
9459;SDS011;4768;42.664;23.240;2023-11-21T12:30:09;32.13;;;20.23;;
9459;SDS011;4768;42.664;23.240;2023-11-21T12:32:38;35.27;;;20.40;;
9459;SDS011;4768;42.664;23.240;2023-11-21T12:35:06;35.43;;;19.83;;
9459;SDS011;4768;42.664;23.240;2023-11-21T12:37:35;41.30;;;21.27;;
9459;SDS011;4768;42.664;23.240;2023-11-21T12:40:03;34.40;;;19.93;;
9459;SDS011;4768;42.664;23.240;2023-11-21T12:42:32;31.23;;;19.40;;
9459;SDS011;4768;42.664;23.240;2023-11-21T12:45:09;38.60;;;19.87;;
9459;SDS011;4768;42.664;23.240;2023-11-21T12:47:45;32.27;;;17.97;;
9459;SDS011;4768;42.664;23.240;2023-11-21T12:50:13;32.83;;;17.57;;
9459;SDS011;4768;42.664;23.240;2023-11-21T12:52:41;32.07;;;17.07;;
9459;SDS011;4768;42.664;23.240;2023-11-21T12:55:13;24.50;;;15.73;;
9459;SDS011;4768;42.664;23.240;2023-11-21T12:57:43;29.53;;;16.53;;
9459;SDS011;4768;42.664;23.240;2023-11-21T13:00:11;27.50;;;15.67;;
9459;SDS011;4768;42.664;23.240;2023-11-21T13:02:51;25.50;;;16.37;;
9459;SDS011;4768;42.664;23.240;2023-11-21T13:05:26;23.57;;;14.57;;
9459;SDS011;4768;42.664;23.240;2023-11-21T13:07:53;25.90;;;15.77;;
9459;SDS011;4768;42.664;23.240;2023-11-21T13:10:22;29.73;;;17.30;;
9459;SDS011;4768;42.664;23.240;2023-11-21T13:12:55;24.30;;;13.33;;
9459;SDS011;4768;42.664;23.240;2023-11-21T13:15:25;23.43;;;14.80;;
9459;SDS011;4768;42.664;23.240;2023-11-21T13:17:52;18.90;;;12.43;;
9459;SDS011;4768;42.664;23.240;2023-11-21T13:20:21;20.67;;;12.73;;
9459;SDS011;4768;42.664;23.240;2023-11-21T13:22:50;20.80;;;12.53;;
9459;SDS011;4768;42.664;23.240;2023-11-21T13:25:20;23.20;;;14.23;;
9459;SDS011;4768;42.664;23.240;2023-11-21T13:27:47;21.50;;;13.63;;
9459;SDS011;4768;42.664;23.240;2023-11-21T13:30:16;24.47;;;14.23;;
9459;SDS011;4768;42.664;23.240;2023-11-21T13:32:46;31.13;;;20.37;;
9459;SDS011;4768;42.664;23.240;2023-11-21T13:35:16;28.17;;;15.90;;
9459;SDS011;4768;42.664;23.240;2023-11-21T13:37:49;31.87;;;16.23;;
9459;SDS011;4768;42.664;23.240;2023-11-21T13:40:19;26.73;;;15.33;;
9459;SDS011;4768;42.664;23.240;2023-11-21T13:42:51;30.53;;;17.93;;
9459;SDS011;4768;42.664;23.240;2023-11-21T13:45:26;25.17;;;16.57;;
9459;SDS011;4768;42.664;23.240;2023-11-21T13:47:53;33.97;;;18.30;;
9459;SDS011;4768;42.664;23.240;2023-11-21T13:50:23;30.83;;;18.23;;
9459;SDS011;4768;42.664;23.240;2023-11-21T13:52:54;35.37;;;19.40;;
9459;SDS011;4768;42.664;23.240;2023-11-21T13:55:21;32.10;;;19.10;;
9459;SDS011;4768;42.664;23.240;2023-11-21T13:57:50;30.47;;;19.53;;
9459;SDS011;4768;42.664;23.240;2023-11-21T14:00:18;34.83;;;20.07;;
9459;SDS011;4768;42.664;23.240;2023-11-21T14:03:08;38.97;;;21.53;;
9459;SDS011;4768;42.664;23.240;2023-11-21T14:05:42;33.93;;;19.93;;
9459;SDS011;4768;42.664;23.240;2023-11-21T14:08:11;28.80;;;18.50;;
9459;SDS011;4768;42.664;23.240;2023-11-21T14:10:41;32.63;;;18.40;;
9459;SDS011;4768;42.664;23.240;2023-11-21T14:13:10;31.73;;;18.77;;
9459;SDS011;4768;42.664;23.240;2023-11-21T14:15:38;32.43;;;18.93;;
9459;SDS011;4768;42.664;23.240;2023-11-21T14:18:09;28.27;;;18.50;;
9459;SDS011;4768;42.664;23.240;2023-11-21T14:20:37;32.90;;;20.20;;
9459;SDS011;4768;42.664;23.240;2023-11-21T14:23:05;38.20;;;21.07;;
9459;SDS011;4768;42.664;23.240;2023-11-21T14:25:32;37.67;;;20.47;;
9459;SDS011;4768;42.664;23.240;2023-11-21T14:27:59;30.33;;;19.20;;
9459;SDS011;4768;42.664;23.240;2023-11-21T14:30:28;36.73;;;20.33;;
9459;SDS011;4768;42.664;23.240;2023-11-21T14:32:57;35.90;;;20.43;;
9459;SDS011;4768;42.664;23.240;2023-11-21T14:35:25;40.37;;;22.90;;
9459;SDS011;4768;42.664;23.240;2023-11-21T14:37:53;42.50;;;22.73;;
9459;SDS011;4768;42.664;23.240;2023-11-21T14:40:20;37.03;;;19.77;;
9459;SDS011;4768;42.664;23.240;2023-11-21T14:42:49;24.57;;;15.87;;
9459;SDS011;4768;42.664;23.240;2023-11-21T15:09:49;28.33;;;15.70;;
9459;SDS011;4768;42.664;23.240;2023-11-21T15:12:18;53.83;;;24.33;;
9459;SDS011;4768;42.664;23.240;2023-11-21T15:14:46;33.63;;;17.00;;
9459;SDS011;4768;42.664;23.240;2023-11-21T15:17:17;17.20;;;10.80;;
9459;SDS011;4768;42.664;23.240;2023-11-21T15:19:50;13.03;;;8.93;;
9459;SDS011;4768;42.664;23.240;2023-11-21T15:22:18;18.33;;;12.20;;
9459;SDS011;4768;42.664;23.240;2023-11-21T15:24:44;22.57;;;12.10;;
9459;SDS011;4768;42.664;23.240;2023-11-21T15:34:29;34.33;;;19.88;;
9459;SDS011;4768;42.664;23.240;2023-11-21T15:36:56;37.43;;;21.83;;
9459;SDS011;4768;42.664;23.240;2023-11-21T15:39:23;39.73;;;24.33;;
9459;SDS011;4768;42.664;23.240;2023-11-21T15:41:54;48.17;;;28.27;;
9459;SDS011;4768;42.664;23.240;2023-11-21T15:44:21;41.90;;;24.07;;
9459;SDS011;4768;42.664;23.240;2023-11-21T15:46:48;47.43;;;27.73;;
9459;SDS011;4768;42.664;23.240;2023-11-21T15:49:15;57.27;;;29.13;;
9459;SDS011;4768;42.664;23.240;2023-11-21T15:51:46;33.97;;;19.93;;
9459;SDS011;4768;42.664;23.240;2023-11-21T15:54:17;45.43;;;28.37;;
9459;SDS011;4768;42.664;23.240;2023-11-21T15:56:45;27.07;;;16.53;;
9459;SDS011;4768;42.664;23.240;2023-11-21T15:59:12;30.80;;;16.70;;
9459;SDS011;4768;42.664;23.240;2023-11-21T16:01:39;25.13;;;15.70;;
9459;SDS011;4768;42.664;23.240;2023-11-21T16:04:08;19.00;;;11.47;;
9459;SDS011;4768;42.664;23.240;2023-11-21T16:06:37;21.73;;;10.77;;
9459;SDS011;4768;42.664;23.240;2023-11-21T16:09:06;14.33;;;9.57;;
9459;SDS011;4768;42.664;23.240;2023-11-21T16:11:43;12.80;;;8.07;;
9459;SDS011;4768;42.664;23.240;2023-11-21T16:14:10;16.43;;;9.30;;
9459;SDS011;4768;42.664;23.240;2023-11-21T16:16:37;16.07;;;8.40;;
9459;SDS011;4768;42.664;23.240;2023-11-21T16:19:03;16.50;;;12.63;;
9459;SDS011;4768;42.664;23.240;2023-11-21T16:21:30;14.03;;;9.27;;
9459;SDS011;4768;42.664;23.240;2023-11-21T16:23:57;13.00;;;8.40;;
9459;SDS011;4768;42.664;23.240;2023-11-21T16:26:25;14.27;;;8.50;;
9459;SDS011;4768;42.664;23.240;2023-11-21T16:28:52;14.30;;;9.20;;
9459;SDS011;4768;42.664;23.240;2023-11-21T16:31:22;11.87;;;6.87;;
9459;SDS011;4768;42.664;23.240;2023-11-21T16:33:49;11.07;;;6.63;;
9459;SDS011;4768;42.664;23.240;2023-11-21T16:36:15;10.70;;;6.00;;
9459;SDS011;4768;42.664;23.240;2023-11-21T16:38:43;11.33;;;6.60;;
9459;SDS011;4768;42.664;23.240;2023-11-21T16:41:10;14.20;;;7.33;;
9459;SDS011;4768;42.664;23.240;2023-11-21T16:43:38;13.27;;;9.20;;
9459;SDS011;4768;42.664;23.240;2023-11-21T16:46:05;19.47;;;11.40;;
9459;SDS011;4768;42.664;23.240;2023-11-21T16:48:31;22.40;;;11.07;;
9459;SDS011;4768;42.664;23.240;2023-11-21T16:50:58;20.90;;;11.83;;
9459;SDS011;4768;42.664;23.240;2023-11-21T16:53:25;23.30;;;12.17;;
9459;SDS011;4768;42.664;23.240;2023-11-21T16:55:52;25.03;;;12.93;;
9459;SDS011;4768;42.664;23.240;2023-11-21T16:58:18;19.17;;;10.87;;
9459;SDS011;4768;42.664;23.240;2023-11-21T17:00:46;28.00;;;15.40;;
9459;SDS011;4768;42.664;23.240;2023-11-21T17:05:38;51.50;;;28.33;;
9459;SDS011;4768;42.664;23.240;2023-11-21T17:08:05;20.43;;;12.40;;
9459;SDS011;4768;42.664;23.240;2023-11-21T17:10:35;29.27;;;16.93;;
9459;SDS011;4768;42.664;23.240;2023-11-21T17:13:03;24.80;;;16.50;;
9459;SDS011;4768;42.664;23.240;2023-11-21T17:15:31;24.27;;;16.17;;
9459;SDS011;4768;42.664;23.240;2023-11-21T17:17:59;28.07;;;15.60;;
9459;SDS011;4768;42.664;23.240;2023-11-21T17:20:27;16.87;;;10.10;;
9459;SDS011;4768;42.664;23.240;2023-11-21T17:22:53;75.87;;;36.67;;
9459;SDS011;4768;42.664;23.240;2023-11-21T17:25:21;45.07;;;24.37;;
9459;SDS011;4768;42.664;23.240;2023-11-21T17:27:48;34.40;;;18.13;;
9459;SDS011;4768;42.664;23.240;2023-11-21T17:30:16;29.47;;;17.23;;
9459;SDS011;4768;42.664;23.240;2023-11-21T17:32:44;34.03;;;21.03;;
9459;SDS011;4768;42.664;23.240;2023-11-21T17:35:12;51.57;;;32.23;;
9459;SDS011;4768;42.664;23.240;2023-11-21T17:37:39;38.20;;;23.07;;
9459;SDS011;4768;42.664;23.240;2023-11-21T17:40:06;37.33;;;22.03;;
9459;SDS011;4768;42.664;23.240;2023-11-21T17:42:33;41.97;;;23.53;;
9459;SDS011;4768;42.664;23.240;2023-11-21T17:45:01;43.23;;;24.57;;
9459;SDS011;4768;42.664;23.240;2023-11-21T17:47:29;50.07;;;25.20;;
9459;SDS011;4768;42.664;23.240;2023-11-21T17:49:56;42.70;;;24.27;;
9459;SDS011;4768;42.664;23.240;2023-11-21T17:52:24;48.63;;;28.23;;
9459;SDS011;4768;42.664;23.240;2023-11-21T17:54:51;49.53;;;28.23;;
9459;SDS011;4768;42.664;23.240;2023-11-21T17:57:18;40.53;;;23.03;;
9459;SDS011;4768;42.664;23.240;2023-11-21T17:59:44;39.20;;;21.80;;
9459;SDS011;4768;42.664;23.240;2023-11-21T18:02:13;40.03;;;21.60;;
9459;SDS011;4768;42.664;23.240;2023-11-21T18:04:40;49.30;;;28.67;;
9459;SDS011;4768;42.664;23.240;2023-11-21T18:07:06;43.03;;;25.00;;
9459;SDS011;4768;42.664;23.240;2023-11-21T18:09:35;41.30;;;24.53;;
9459;SDS011;4768;42.664;23.240;2023-11-21T18:12:01;38.67;;;23.97;;
9459;SDS011;4768;42.664;23.240;2023-11-21T18:14:28;41.23;;;21.67;;
9459;SDS011;4768;42.664;23.240;2023-11-21T18:16:55;33.67;;;21.00;;
9459;SDS011;4768;42.664;23.240;2023-11-21T18:19:22;45.60;;;23.37;;
9459;SDS011;4768;42.664;23.240;2023-11-21T18:21:49;47.80;;;26.80;;
9459;SDS011;4768;42.664;23.240;2023-11-21T18:24:16;37.90;;;22.73;;
9459;SDS011;4768;42.664;23.240;2023-11-21T18:26:44;38.30;;;21.87;;
9459;SDS011;4768;42.664;23.240;2023-11-21T18:29:11;34.13;;;19.87;;
9459;SDS011;4768;42.664;23.240;2023-11-21T18:31:42;37.00;;;22.17;;
9459;SDS011;4768;42.664;23.240;2023-11-21T18:34:09;36.30;;;22.40;;